createdAt,value
2023-05-19T00:01:21.453Z,101206.66
2023-05-19T00:03:54.471Z,101203.88
2023-05-19T00:06:32.979Z,101210.81
2023-05-19T00:09:05.533Z,101210.88
2023-05-19T00:11:36.297Z,101251.00
2023-05-19T00:14:05.887Z,101226.09
2023-05-19T00:16:33.982Z,101202.59
2023-05-19T00:19:03.201Z,101277.31
2023-05-19T00:21:31.797Z,101186.84
2023-05-19T00:24:18.653Z,101259.63
2023-05-19T00:26:59.659Z,101228.59
2023-05-19T00:29:27.367Z,101237.75
2023-05-19T00:31:54.920Z,101259.00
2023-05-19T00:34:22.247Z,101242.25
2023-05-19T00:36:49.269Z,101253.41
2023-05-19T00:39:16.557Z,101257.03
2023-05-19T00:41:44.006Z,101246.25
2023-05-19T00:44:11.341Z,101251.72
2023-05-19T00:46:38.435Z,101234.88
2023-05-19T00:49:25.690Z,101251.03
2023-05-19T00:52:26.663Z,101192.19
2023-05-19T00:55:27.788Z,101201.84
2023-05-19T00:57:57.937Z,101180.41
2023-05-19T01:00:24.869Z,101245.59
2023-05-19T01:02:52.413Z,101202.97
2023-05-19T01:05:19.924Z,101213.09
2023-05-19T01:07:47.595Z,101259.50
2023-05-19T01:10:15.096Z,101254.28
2023-05-19T01:12:42.209Z,101243.78
2023-05-19T01:15:10.146Z,101193.00
2023-05-19T01:17:55.009Z,101195.81
2023-05-19T01:20:36.422Z,101186.97
2023-05-19T01:23:54.805Z,101190.38
2023-05-19T01:26:56.765Z,101243.63
2023-05-19T01:29:30.544Z,101252.13
2023-05-19T01:32:00.358Z,101176.59
2023-05-19T01:34:29.591Z,101185.31
2023-05-19T01:37:01.338Z,101185.38
2023-05-19T01:39:28.827Z,101144.97
2023-05-19T01:41:58.294Z,101105.91
2023-05-19T01:44:25.734Z,101209.03
2023-05-19T01:46:53.431Z,101259.59
2023-05-19T01:49:40.704Z,101232.13
2023-05-19T01:52:21.375Z,101179.47
2023-05-19T01:54:49.248Z,101245.25
2023-05-19T01:57:38.100Z,101259.84
2023-05-19T02:01:03.836Z,101245.06
2023-05-19T02:04:24.801Z,101251.88
2023-05-19T02:07:10.208Z,101249.75
2023-05-19T02:09:40.855Z,101249.22
2023-05-19T02:12:16.901Z,101189.53
2023-05-19T02:14:55.316Z,101194.78
2023-05-19T02:17:23.684Z,101131.84
2023-05-19T02:19:52.023Z,101184.34
2023-05-19T02:22:38.750Z,101237.91
2023-05-19T02:25:21.794Z,101181.56
2023-05-19T02:27:49.693Z,101118.13
2023-05-19T02:30:16.852Z,101086.22
2023-05-19T02:32:46.971Z,101159.97
2023-05-19T02:35:14.293Z,101215.06
2023-05-19T02:37:42.327Z,101151.19
2023-05-19T02:40:11.138Z,101161.00
2023-05-19T02:42:38.160Z,101184.19
2023-05-19T02:45:05.879Z,101164.00
2023-05-19T02:47:35.431Z,101224.44
2023-05-19T02:50:25.180Z,101241.09
2023-05-19T02:53:05.439Z,101198.84
2023-05-19T02:55:32.507Z,101248.47
2023-05-19T02:57:59.622Z,101125.91
2023-05-19T03:00:51.736Z,100943.19
2023-05-19T03:03:24.677Z,101082.34
2023-05-19T03:06:06.320Z,100955.59
2023-05-19T03:08:57.141Z,100947.66
2023-05-19T03:11:35.629Z,100963.69
2023-05-19T03:16:45.593Z,100918.97
2023-05-19T03:19:21.432Z,101049.66
2023-05-19T03:21:51.500Z,101240.84
2023-05-19T03:24:52.487Z,101080.50
2023-05-19T03:28:11.891Z,101061.59
2023-05-19T03:36:41.597Z,101062.41
2023-05-19T03:45:16.540Z,101053.50
2023-05-19T03:51:28.531Z,101061.00
2023-05-19T03:54:38.741Z,100931.59
2023-05-19T03:57:24.648Z,100943.63
2023-05-19T04:03:16.167Z,101071.56
2023-05-19T04:05:59.899Z,101103.34
2023-05-19T04:16:08.455Z,101109.81
2023-05-19T04:20:06.842Z,101039.75
2023-05-19T04:24:33.810Z,101048.94
2023-05-19T04:40:26.413Z,101033.75
2023-05-19T06:27:16.121Z,101348.84
2023-05-19T06:29:43.421Z,101337.25
2023-05-19T06:32:11.120Z,101281.72
2023-05-19T06:35:00.972Z,101358.41
2023-05-19T06:37:41.701Z,101338.13
2023-05-19T06:40:09.695Z,101332.97
2023-05-19T06:42:39.007Z,101269.69
2023-05-19T06:45:15.104Z,101320.53
2023-05-19T06:47:42.822Z,101357.75
2023-05-19T06:50:29.958Z,101296.19
2023-05-19T06:53:10.588Z,101220.09
2023-05-19T06:55:50.479Z,101325.63
2023-05-19T06:58:27.362Z,101249.63
2023-05-19T07:00:55.982Z,101161.13
2023-05-19T07:03:27.688Z,101313.69
2023-05-19T07:06:16.221Z,101261.13
2023-05-19T07:09:18.928Z,101370.16
2023-05-19T07:11:59.504Z,101357.31
2023-05-19T07:14:28.065Z,101203.19
2023-05-19T07:16:55.442Z,101265.97
2023-05-19T07:19:24.251Z,101359.38
2023-05-19T07:21:55.033Z,101345.56
2023-05-19T07:24:22.367Z,101217.84
2023-05-19T07:26:49.532Z,101362.69
2023-05-19T07:29:16.523Z,101314.16
2023-05-19T07:31:43.636Z,101212.97
2023-05-19T07:34:32.069Z,101261.34
2023-05-19T07:37:17.220Z,101351.00
2023-05-19T07:39:44.276Z,101251.38
2023-05-19T07:42:11.639Z,101333.53
2023-05-19T07:44:39.099Z,101310.44
2023-05-19T07:47:06.413Z,101352.66
2023-05-19T07:49:54.022Z,101333.59
2023-05-19T07:52:34.838Z,101334.69
2023-05-19T07:55:02.382Z,101288.69
2023-05-19T07:57:29.502Z,101251.94
2023-05-19T07:59:56.657Z,101374.13
2023-05-19T08:02:23.853Z,101305.28
2023-05-19T08:04:51.087Z,101363.63
2023-05-19T08:07:37.932Z,101361.06
2023-05-19T08:10:18.864Z,101357.94
2023-05-19T08:12:47.471Z,101226.16
2023-05-19T08:15:14.598Z,101315.72
2023-05-19T08:17:42.333Z,101352.91
2023-05-19T08:20:12.550Z,101301.19
2023-05-19T08:22:59.980Z,101329.38
2023-05-19T08:26:00.988Z,101320.84
2023-05-19T08:28:41.626Z,101375.81
2023-05-19T08:31:08.793Z,101254.78
2023-05-19T08:33:56.031Z,101310.09
2023-05-19T08:36:36.714Z,101257.03
2023-05-19T08:39:03.891Z,101335.19
2023-05-19T08:41:31.410Z,101293.28
2023-05-19T08:43:59.309Z,101253.31
2023-05-19T08:46:29.399Z,101236.50
2023-05-19T08:49:18.980Z,101354.75
2023-05-19T08:52:52.503Z,101349.28
2023-05-19T08:55:36.789Z,101302.00
2023-05-19T08:58:06.798Z,101365.91
2023-05-19T09:00:34.452Z,101294.16
2023-05-19T09:03:17.383Z,101347.16
2023-05-19T09:06:06.036Z,101357.25
2023-05-19T09:08:47.326Z,101314.19
2023-05-19T09:11:15.778Z,101241.69
2023-05-19T09:13:43.888Z,101372.19
2023-05-19T09:16:19.280Z,101336.66
2023-05-19T09:19:06.038Z,101363.88
2023-05-19T09:21:47.135Z,101214.22
2023-05-19T09:24:48.196Z,101307.22
2023-05-19T09:27:21.622Z,101211.16
2023-05-19T09:29:51.461Z,101321.44
2023-05-19T09:32:28.281Z,101302.94
2023-05-19T09:35:28.041Z,101298.88
2023-05-19T09:38:33.056Z,101329.91
2023-05-19T09:41:14.954Z,101370.00
2023-05-19T09:43:42.107Z,101271.72
2023-05-19T09:46:14.641Z,101305.84
2023-05-19T09:48:42.672Z,101313.97
2023-05-19T09:51:23.162Z,101302.06
2023-05-19T09:54:04.764Z,101361.06
2023-05-19T09:56:34.806Z,101355.59
2023-05-19T09:59:04.090Z,101234.34
2023-05-19T10:01:33.832Z,101354.31
2023-05-19T10:04:01.392Z,101314.88
2023-05-19T10:06:29.916Z,101260.03
2023-05-19T10:08:58.550Z,101257.09
2023-05-19T10:11:27.558Z,101362.03
2023-05-19T10:14:15.223Z,101315.56
2023-05-19T10:16:57.936Z,101272.81
2023-05-19T10:19:29.890Z,101312.81
2023-05-19T10:21:57.255Z,101206.56
2023-05-19T10:24:24.594Z,101195.53
2023-05-19T10:27:04.101Z,101356.47
2023-05-19T10:29:39.769Z,101205.75
2023-05-19T10:32:15.988Z,101330.25
2023-05-19T10:35:18.503Z,101349.88
2023-05-19T10:38:28.027Z,101257.38
2023-05-19T10:41:27.127Z,101273.91
2023-05-19T10:44:06.201Z,101290.97
2023-05-19T10:46:33.622Z,101351.88
2023-05-19T10:49:01.098Z,101304.22
2023-05-19T10:52:03.805Z,101244.44
2023-05-19T10:54:43.733Z,101355.88
2023-05-19T10:57:17.545Z,101245.81
2023-05-19T11:00:05.117Z,101365.38
2023-05-19T11:02:46.264Z,101342.09
2023-05-19T11:05:23.142Z,101258.72
2023-05-19T11:08:26.110Z,101357.78
2023-05-19T11:11:16.801Z,101299.59
2023-05-19T11:13:51.109Z,101315.00
2023-05-19T11:16:32.785Z,101301.81
2023-05-19T11:19:00.131Z,101346.44
2023-05-19T11:21:52.493Z,101332.59
2023-05-19T11:24:40.676Z,101323.38
2023-05-19T11:27:17.860Z,101307.56
2023-05-19T11:29:45.075Z,101329.47
2023-05-19T11:32:13.782Z,101342.78
2023-05-19T11:34:41.766Z,101301.16
2023-05-19T11:37:29.469Z,101318.91
2023-05-19T11:40:31.152Z,101342.72
2023-05-19T11:43:32.145Z,101308.25
2023-05-19T11:46:02.230Z,101234.19
2023-05-19T11:48:30.284Z,101274.94
2023-05-19T11:51:20.088Z,101294.09
2023-05-19T11:54:01.823Z,101337.44
2023-05-19T11:56:54.230Z,101303.56
2023-05-19T11:59:56.179Z,101308.38
2023-05-19T12:02:39.738Z,101291.44
2023-05-19T12:05:09.554Z,101314.56
2023-05-19T12:07:39.587Z,101345.59
2023-05-19T12:10:07.201Z,101184.59
2023-05-19T12:12:35.529Z,101242.09
2023-05-19T12:15:04.264Z,101256.16
2023-05-19T12:17:33.043Z,101331.69
2023-05-19T12:20:04.930Z,101343.03
2023-05-19T12:22:32.176Z,101335.53
2023-05-19T12:25:12.131Z,101237.53
2023-05-19T12:28:14.294Z,101333.34
2023-05-19T12:31:17.224Z,101316.22
2023-05-19T12:34:18.288Z,101265.38
2023-05-19T12:36:58.991Z,101243.78
2023-05-19T12:39:47.538Z,101325.31
2023-05-19T12:42:48.099Z,101254.47
2023-05-19T12:45:54.253Z,101329.13
2023-05-19T12:48:59.290Z,101275.78
2023-05-19T12:52:13.205Z,101290.63
2023-05-19T12:55:01.701Z,101313.75
2023-05-19T12:57:50.653Z,101327.53
2023-05-19T13:00:33.395Z,101275.47
2023-05-19T13:03:05.718Z,101281.66
2023-05-19T13:05:37.156Z,101214.69
2023-05-19T13:08:10.523Z,101222.41
2023-05-19T13:10:39.517Z,101208.47
2023-05-19T13:13:08.082Z,101329.59
2023-05-19T13:15:41.153Z,101215.66
2023-05-19T13:18:10.329Z,101181.63
2023-05-19T13:20:38.727Z,101325.88
2023-05-19T13:23:13.357Z,101289.56
2023-05-19T13:26:23.998Z,101303.91
2023-05-19T13:29:25.236Z,101228.28
2023-05-19T13:32:26.212Z,101285.53
2023-05-19T13:35:07.400Z,101279.59
2023-05-19T13:37:34.952Z,101277.47
2023-05-19T13:40:23.152Z,101309.81
2023-05-19T13:43:24.229Z,101171.44
2023-05-19T13:46:11.790Z,101296.50
2023-05-19T13:48:59.602Z,101305.78
2023-05-19T13:52:00.293Z,101286.22
2023-05-19T13:55:01.181Z,101251.47
2023-05-19T13:58:02.245Z,101278.22
2023-05-19T14:01:03.215Z,101227.47
2023-05-19T14:03:50.548Z,101280.38
2023-05-19T14:06:18.278Z,101280.28
2023-05-19T14:09:05.200Z,101193.16
2023-05-19T14:11:46.137Z,101164.44
2023-05-19T14:14:13.353Z,101134.69
2023-05-19T14:16:43.680Z,101308.13
2023-05-19T14:19:11.556Z,101290.91
2023-05-19T14:21:38.658Z,101146.59
2023-05-19T14:24:06.245Z,101231.97
2023-05-19T14:26:53.220Z,101257.91
2023-05-19T14:29:55.196Z,101195.13
2023-05-19T14:32:36.097Z,101248.53
2023-05-19T14:35:03.534Z,101271.38
2023-05-19T14:37:32.211Z,101167.94
2023-05-19T14:40:00.061Z,101131.78
2023-05-19T14:42:27.158Z,101115.47
2023-05-19T14:44:54.611Z,101127.03
2023-05-19T14:47:42.654Z,101218.28
2023-05-19T14:50:43.228Z,101219.50
2023-05-19T14:54:41.204Z,101280.88
2023-05-19T14:57:45.274Z,101226.47
2023-05-19T15:00:46.219Z,101260.47
2023-05-19T15:03:27.102Z,101221.88
2023-05-19T15:05:54.361Z,101227.94
2023-05-19T15:08:41.609Z,101191.63
2023-05-19T15:11:24.884Z,101264.94
2023-05-19T15:13:52.192Z,101196.94
2023-05-19T15:16:41.092Z,101238.00
2023-05-19T15:19:24.155Z,101242.59
2023-05-19T15:21:51.457Z,101176.75
2023-05-19T15:24:19.272Z,101112.19
2023-05-19T15:27:06.248Z,101261.19
2023-05-19T15:30:08.233Z,101163.81
2023-05-19T15:32:59.394Z,101178.59
2023-05-19T15:35:26.626Z,101150.19
2023-05-19T15:37:56.128Z,101249.00
2023-05-19T15:40:24.144Z,101260.03
2023-05-19T15:43:11.290Z,101182.69
2023-05-19T15:46:12.329Z,101256.38
2023-05-19T15:49:13.265Z,101142.63
2023-05-19T15:52:15.263Z,101209.25
2023-05-19T15:55:16.381Z,101197.84
2023-05-19T15:58:17.392Z,101222.47
2023-05-19T16:01:18.291Z,101239.78
2023-05-19T16:03:59.126Z,101251.50
2023-05-19T16:06:27.765Z,101250.25
2023-05-19T16:08:55.360Z,101193.22
2023-05-19T16:11:23.700Z,101225.47
2023-05-19T16:13:51.196Z,101220.13
2023-05-19T16:16:38.625Z,101231.25
2023-05-19T16:19:39.442Z,101151.19
2023-05-19T16:22:20.623Z,101181.75
2023-05-19T16:25:09.301Z,101192.66
2023-05-19T16:27:52.895Z,101093.34
2023-05-19T16:30:20.690Z,101220.28
2023-05-19T16:32:48.127Z,101012.50
2023-05-19T16:35:24.084Z,100950.00
2023-05-19T16:37:51.620Z,101028.66
2023-05-19T16:40:22.776Z,101059.50
2023-05-19T16:43:00.866Z,101122.16
2023-05-19T16:46:05.709Z,100950.06
2023-05-19T16:53:13.347Z,101020.78
2023-05-19T16:56:19.756Z,101109.00
2023-05-19T17:02:48.773Z,100984.00
2023-05-19T17:05:36.329Z,101088.72
2023-05-19T17:08:17.752Z,101123.38
2023-05-19T17:10:45.862Z,101124.19
2023-05-19T17:13:16.139Z,101236.44
2023-05-19T17:16:15.465Z,101179.81
2023-05-19T17:19:20.444Z,101160.13
2023-05-19T17:22:22.817Z,101088.53
2023-05-19T17:25:25.538Z,101044.50
2023-05-19T17:28:00.855Z,100929.78
2023-05-19T17:30:39.990Z,101040.00
2023-05-19T17:33:08.589Z,101140.19
2023-05-19T17:35:48.315Z,101089.31
2023-05-19T17:38:31.433Z,101011.13
2023-05-19T17:41:10.732Z,101074.66
2023-05-19T17:43:42.410Z,101143.66
2023-05-19T17:46:31.919Z,101096.56
2023-05-19T17:49:38.660Z,101186.16
2023-05-19T17:53:03.782Z,101019.94
2023-05-19T17:55:51.515Z,100986.50
2023-05-19T17:58:24.863Z,101180.81
2023-05-19T18:01:13.504Z,101027.16
2023-05-19T18:04:12.131Z,101105.78
2023-05-19T18:06:58.460Z,101018.59
2023-05-19T18:09:46.014Z,101154.84
2023-05-19T18:12:30.033Z,101271.97
2023-05-19T18:15:24.566Z,100994.22
2023-05-19T18:18:23.210Z,101036.88
2023-05-19T18:20:51.288Z,101188.72
2023-05-19T18:23:43.863Z,101210.56
2023-05-19T18:26:25.017Z,101205.44
2023-05-19T18:29:23.535Z,101090.69
2023-05-19T18:31:58.236Z,101013.91
2023-05-19T18:51:58.111Z,101256.25
2023-05-19T19:03:21.793Z,100982.41
2023-05-19T19:11:16.788Z,101091.09
2023-05-19T19:14:13.872Z,101205.72
2023-05-19T19:21:17.609Z,101046.59
2023-05-19T19:24:48.463Z,101028.94
2023-05-19T19:39:01.347Z,101110.25
2023-05-19T19:41:54.814Z,101201.31
2023-05-19T19:44:23.987Z,101137.03
2023-05-19T19:47:13.428Z,101087.81
2023-05-19T19:50:14.705Z,101131.53
2023-05-19T19:52:55.106Z,101156.34
2023-05-19T19:55:22.326Z,101256.25
2023-05-19T19:57:51.692Z,101226.16
2023-05-19T20:00:38.476Z,101249.53
2023-05-19T20:03:40.833Z,101248.78
2023-05-19T20:06:41.394Z,101286.69
2023-05-19T20:09:42.463Z,101190.03
2023-05-19T20:12:23.076Z,101265.56
2023-05-19T20:14:51.581Z,101266.22
2023-05-19T20:17:18.684Z,101195.50
2023-05-19T20:19:45.937Z,101210.03
2023-05-19T20:22:15.426Z,101285.44
2023-05-19T20:25:02.447Z,101194.13
2023-05-19T20:27:43.109Z,101264.91
2023-05-19T20:30:11.704Z,101231.41
2023-05-19T20:32:39.860Z,101277.22
2023-05-19T20:35:07.392Z,101215.63
2023-05-19T20:37:55.160Z,101257.00
2023-05-19T20:40:56.482Z,101173.16
2023-05-19T20:43:37.781Z,101257.88
2023-05-19T20:46:25.549Z,101220.09
2023-05-19T20:49:26.541Z,101225.59
2023-05-19T20:52:29.412Z,101148.22
2023-05-19T20:55:30.926Z,101143.53
2023-05-19T20:58:08.903Z,101244.09
2023-05-19T21:00:36.377Z,101118.44
2023-05-19T21:03:23.672Z,101161.59
2023-05-19T21:06:24.448Z,101146.56
2023-05-19T21:09:25.465Z,101217.69
2023-05-19T21:12:21.962Z,101309.78
2023-05-19T21:15:03.879Z,101292.38
2023-05-19T21:17:31.252Z,101217.78
2023-05-19T21:19:59.839Z,101244.03
2023-05-19T21:22:47.569Z,101032.41
2023-05-19T21:25:28.177Z,101116.25
2023-05-19T21:27:56.209Z,101141.06
2023-05-19T21:30:24.006Z,101231.72
2023-05-19T21:32:53.537Z,101142.88
2023-05-19T21:35:20.859Z,101175.75
2023-05-19T21:37:48.404Z,101150.13
2023-05-19T21:40:15.664Z,101173.03
2023-05-19T21:42:42.836Z,101272.00
2023-05-19T21:45:10.731Z,101163.75
2023-05-19T21:47:38.086Z,101170.22
2023-05-19T21:50:25.512Z,101187.19
2023-05-19T21:53:09.566Z,101204.50
2023-05-19T21:55:36.724Z,101232.91
2023-05-19T21:58:04.350Z,101131.94
2023-05-19T22:00:31.811Z,101179.22
2023-05-19T22:03:00.825Z,101190.44
2023-05-19T22:05:35.180Z,101272.44
2023-05-19T22:08:02.394Z,101263.63
2023-05-19T22:10:29.664Z,101171.66
2023-05-19T22:12:57.714Z,101224.16
2023-05-19T22:15:24.868Z,101145.16
2023-05-19T22:17:52.034Z,101171.22
2023-05-19T22:20:19.140Z,101211.72
2023-05-19T22:22:46.157Z,101205.34
2023-05-19T22:25:13.196Z,101208.13
2023-05-19T22:27:40.519Z,101134.22
2023-05-19T22:30:08.207Z,101217.97
2023-05-19T22:32:35.860Z,101150.13
2023-05-19T22:35:02.994Z,101192.19
2023-05-19T22:37:51.505Z,101162.78
2023-05-19T22:40:52.500Z,101182.31
2023-05-19T22:43:33.098Z,101213.94
2023-05-19T22:46:20.627Z,101194.44
2023-05-19T22:49:21.518Z,101248.84
2023-05-19T22:52:23.950Z,101217.22
2023-05-19T22:55:24.615Z,101133.63
2023-05-19T22:58:25.620Z,101224.25
2023-05-19T23:01:06.346Z,101234.53
2023-05-19T23:03:33.434Z,101165.91
2023-05-19T23:06:00.464Z,101235.69
2023-05-19T23:08:47.512Z,101123.00
2023-05-19T23:11:28.465Z,101163.03
2023-05-19T23:13:55.429Z,101143.53
2023-05-19T23:16:22.854Z,101220.28
2023-05-19T23:18:49.936Z,101232.41
2023-05-19T23:21:16.917Z,101205.94
2023-05-19T23:24:04.508Z,101094.44
2023-05-19T23:26:45.458Z,101207.94
2023-05-19T23:29:32.558Z,101214.09
2023-05-19T23:32:13.129Z,101192.06
2023-05-19T23:34:40.113Z,101169.84
2023-05-19T23:37:07.956Z,101172.25
2023-05-19T23:39:35.037Z,101108.31
2023-05-19T23:42:02.575Z,101107.38
2023-05-19T23:44:30.161Z,101138.00
2023-05-19T23:46:57.494Z,101060.63
2023-05-19T23:49:44.520Z,101143.56
2023-05-19T23:52:45.531Z,101155.41
2023-05-19T23:55:34.049Z,101204.66
2023-05-19T23:58:02.030Z,101209.22
